VIP Ground Handling & Aviation Services

 

 
Airport

IOANNINA (IOA)

Ground Handling Services – IOA/LGIO

VIP Ground Handling

State Ground Handling

Military Ground Handling

Slot & PPR Coordination

Fuel Arrangements

Crew Accommodation Arrangements

Crew Transportation

Customs & Immigration Assistance

Executive Terminal Services

Crew Lounge

Flight Planning, Weather Briefing and NOTAMs

Catering Arrangements

Security Services

Aircraft Maintenance

Airport Customs & Immigration

Concierge Services

VIP Meet & Greet

Helicopter Transfers

Chauffeur Services

Aircraft Charter

Yacht Charter

Hire & Rental

Entertainment & Hospitality

Health & Beauty

Delivery Services

Conference & Meeting rooms

Ioannina Airport, Ioannina, 454 45

+30 210 35 33 331 (24/7)

+30 694 6200 300 (24/7)

greece@alphajetservices.com

Ioannina Airport
Airport Type
•Civil
Operating Hours
•Check NOTAMS / Contact us
Fuel Available
•JET A1
Fire Category
•5
Approaches
•VOR / DME NDB
Available data for LGIO from the past 2 hours
IOANNINA
Metar
LGIO 260920Z 10005KT CAVOK 34/10 Q1017

09:20 UTC

Wind: 100° 5kt

Visibility:

Sky:

Temp: 34 deg C / 93.2 deg F

Dewpoint: 10 deg C / 50 deg F

Pressure: 1017 hPa

TAF
TAF LGIO 260800Z 2609/2618 06005KT CAVOK BECMG 2610/2612 9999 FEW025 SCT080